Time;durP1;ratioP1;P1;durP2;ratioP2;P2;SDS_P1;SDS_P2;PMS_P1;PMS_P2;Temp;Humidity;BMP_temperature;BMP_pressure;BME280_temperature;BME280_humidity;BME280_pressure;Samples;Min_cycle;Max_cycle;Signal;HPM_P1;HPM_P2
2022/10/26 00:01:43;;;;;;;;;;;;;;;9.95;81.64;98178.06;4886361;29;20403;-63
2022/10/26 00:04:11;;;;;;;;;;;;;;;10.00;81.43;98179.09;4905481;29;19927;-59
2022/10/26 00:06:39;;;;;;;;;;;;;;;9.97;81.35;98183.22;4889021;29;20325;-61
2022/10/26 00:09:08;;;;;;;;;;;;;;;9.95;81.69;98178.06;4888289;29;20369;-57
2022/10/26 00:11:36;;;;;;;;;;;;;;;9.96;81.29;98174.28;4888087;29;19951;-60
2022/10/26 00:14:04;;;;;;;;;;;;;;;9.96;81.33;98168.06;4892098;29;19938;-60
2022/10/26 00:16:33;;;;;;;;;;;;;;;9.95;81.44;98166.41;4892555;29;19959;-61
2022/10/26 00:19:03;;;;;;;;;;;;;;;9.93;81.53;98166.72;4909972;29;19935;-59
2022/10/26 00:21:30;;;;;;;;;;;;;;;9.91;81.46;98166.25;4895519;29;19975;-59
2022/10/26 00:23:59;;;;;;;;;;;;;;;9.89;81.51;98163.00;4895533;29;19927;-62
2022/10/26 00:26:30;;;;;;;;;;;;;;;9.89;81.64;98162.19;4895277;29;19927;-66
2022/10/26 00:29:01;;;;;;;;;;;;;;;9.89;81.68;98168.44;4898618;29;19966;-61
2022/10/26 00:31:28;;;;;;;;;;;;;;;9.94;81.66;98170.25;4891546;29;19927;-60
2022/10/26 00:33:56;;;;;;;;;;;;;;;9.96;81.54;98162.63;4896511;29;19927;-60
2022/10/26 00:36:25;;;;;;;;;;;;;;;9.97;81.54;98170.47;4895785;29;19931;-58
2022/10/26 00:38:53;;;;;;;;;;;;;;;10.05;81.28;98170.84;4899363;29;19927;-59
2022/10/26 00:41:22;;;;;;;;;;;;;;;10.00;81.37;98168.25;4894492;29;19928;-61
2022/10/26 00:43:51;;;;;;;;;;;;;;;10.04;81.25;98163.81;4890969;29;19928;-60
2022/10/26 00:46:20;;;;;;;;;;;;;;;10.04;81.06;98167.34;4895143;29;19952;-59
2022/10/26 00:48:50;;;;;;;;;;;;;;;10.03;81.29;98168.44;4898636;29;19931;-61
2022/10/26 00:51:20;;;;;;;;;;;;;;;10.00;81.23;98166.31;4900424;29;19934;-60
2022/10/26 00:53:48;;;;;;;;;;;;;;;10.08;81.28;98167.56;4899602;29;19942;-60
2022/10/26 00:56:16;;;;;;;;;;;;;;;10.06;81.21;98161.59;4900274;29;19962;-60
2022/10/26 01:01:38;;;;;;;;;;;;;;;10.10;81.45;98151.75;4903004;29;20035;-60
2022/10/26 01:04:06;;;;;;;;;;;;;;;10.08;81.24;98143.91;4899187;29;19928;-61
2022/10/26 01:06:34;;;;;;;;;;;;;;;10.01;81.36;98132.66;4911796;29;19932;-61
2022/10/26 01:09:02;;;;;;;;;;;;;;;10.01;81.59;98129.13;4899980;29;20512;-59
2022/10/26 01:11:30;;;;;;;;;;;;;;;10.05;81.43;98133.66;4896852;29;19931;-61
2022/10/26 01:13:58;;;;;;;;;;;;;;;10.08;81.18;98133.06;4910741;29;19927;-61
2022/10/26 01:19:41;;;;;;;;;;;;;;;10.13;80.77;98129.44;4923732;29;19927;-61
2022/10/26 01:22:10;;;;;;;;;;;;;;;10.17;80.79;98122.28;4899513;29;19927;-61
2022/10/26 01:24:45;;;;;;;;;;;;;;;10.14;80.92;98121.00;4911342;29;19931;-61
2022/10/26 01:27:16;;;;;;;;;;;;;;;10.13;80.79;98124.81;4922865;29;19954;-61
2022/10/26 01:30:03;;;;;;;;;;;;;;;10.07;81.53;98136.09;4890029;29;20552;-61
2022/10/26 01:32:34;;;;;;;;;;;;;;;9.97;81.07;98128.94;4897605;29;19965;-61
2022/10/26 01:35:04;;;;;;;;;;;;;;;10.02;81.12;98128.84;4894832;29;19928;-60
2022/10/26 01:37:34;;;;;;;;;;;;;;;10.08;80.82;98126.84;4897980;29;19987;-60
2022/10/26 01:40:03;;;;;;;;;;;;;;;10.10;81.06;98119.97;4893902;29;19934;-60
2022/10/26 01:42:31;;;;;;;;;;;;;;;10.00;81.11;98114.75;4895873;29;20022;-60
2022/10/26 01:45:00;;;;;;;;;;;;;;;10.07;81.15;98125.22;4912652;29;19927;-61
2022/10/26 01:47:28;;;;;;;;;;;;;;;10.13;80.96;98126.72;4892241;29;20050;-61
2022/10/26 01:49:58;;;;;;;;;;;;;;;10.10;80.72;98124.59;4903146;29;19927;-62
2022/10/26 01:52:26;;;;;;;;;;;;;;;10.19;80.69;98134.47;4903199;29;19931;-65
2022/10/26 01:55:00;;;;;;;;;;;;;;;10.21;80.58;98129.53;4898867;29;19934;-60
2022/10/26 01:57:33;;;;;;;;;;;;;;;10.25;80.73;98123.53;4893633;29;19927;-61
2022/10/26 02:00:04;;;;;;;;;;;;;;;10.22;80.72;98111.31;4895271;29;19927;-60
2022/10/26 02:02:46;;;;;;;;;;;;;;;10.26;80.70;98115.06;4897969;29;19934;-61
2022/10/26 02:05:34;;;;;;;;;;;;;;;10.27;80.75;98113.94;4896809;29;20399;-61
2022/10/26 02:08:11;;;;;;;;;;;;;;;10.28;80.71;98126.44;4891231;29;19927;-60
2022/10/26 02:10:43;;;;;;;;;;;;;;;10.27;80.82;98145.75;4896842;29;20001;-60
2022/10/26 02:13:14;;;;;;;;;;;;;;;10.23;81.05;98148.25;4892278;29;20373;-60
2022/10/26 02:15:44;;;;;;;;;;;;;;;10.27;81.13;98146.53;4887907;29;19959;-60
2022/10/26 02:18:13;;;;;;;;;;;;;;;10.31;80.57;98152.97;4911178;29;20289;-60
2022/10/26 02:20:42;;;;;;;;;;;;;;;10.22;80.92;98152.84;4893032;29;19931;-60
2022/10/26 02:23:11;;;;;;;;;;;;;;;10.17;80.88;98150.25;4895638;29;20018;-61
2022/10/26 02:25:39;;;;;;;;;;;;;;;10.16;81.26;98134.25;4888959;29;19928;-61
2022/10/26 02:28:07;;;;;;;;;;;;;;;10.20;81.17;98127.13;4904149;29;20373;-61
2022/10/26 02:30:35;;;;;;;;;;;;;;;10.22;81.34;98114.03;4885588;29;19940;-60
2022/10/26 02:33:03;;;;;;;;;;;;;;;10.29;81.03;98113.66;4894679;29;19927;-67
2022/10/26 02:35:56;;;;;;;;;;;;;;;10.30;80.90;98107.94;4890244;29;19928;-61
2022/10/26 02:38:25;;;;;;;;;;;;;;;10.31;81.14;98103.28;4898181;29;19927;-60
2022/10/26 02:40:53;;;;;;;;;;;;;;;10.30;80.75;98116.06;4896629;29;19967;-61
2022/10/26 02:43:21;;;;;;;;;;;;;;;10.30;81.03;98115.28;4899967;29;19927;-61
2022/10/26 02:45:50;;;;;;;;;;;;;;;10.27;80.93;98118.59;4894009;29;19927;-61
2022/10/26 02:48:21;;;;;;;;;;;;;;;10.29;81.16;98117.19;4890531;29;20014;-61
2022/10/26 02:50:51;;;;;;;;;;;;;;;10.31;81.67;98114.97;4893420;29;19959;-61
2022/10/26 02:53:25;;;;;;;;;;;;;;;10.25;81.25;98112.66;4890455;29;19935;-60
2022/10/26 02:55:54;;;;;;;;;;;;;;;10.22;81.18;98111.31;4895177;29;20364;-61
2022/10/26 02:58:24;;;;;;;;;;;;;;;10.27;81.48;98132.97;4890838;29;19931;-60
2022/10/26 03:00:52;;;;;;;;;;;;;;;10.32;81.17;98134.78;4892107;29;19933;-61
2022/10/26 03:03:20;;;;;;;;;;;;;;;10.29;81.34;98127.25;4896949;29;19927;-61
2022/10/26 03:05:49;;;;;;;;;;;;;;;10.30;81.57;98137.00;4896123;29;19927;-58
2022/10/26 03:08:17;;;;;;;;;;;;;;;10.37;81.41;98124.59;4895174;29;19931;-60
2022/10/26 03:10:45;;;;;;;;;;;;;;;10.42;81.17;98131.84;4893201;29;19979;-59
2022/10/26 03:13:14;;;;;;;;;;;;;;;10.39;80.93;98143.34;4895599;29;19938;-60
2022/10/26 03:15:42;;;;;;;;;;;;;;;10.42;80.69;98134.56;4891138;29;19938;-59
2022/10/26 03:18:10;;;;;;;;;;;;;;;10.32;81.99;98132.06;4898377;29;19951;-61
2022/10/26 03:20:37;;;;;;;;;;;;;;;10.37;82.37;98124.59;4907419;29;19932;-60
2022/10/26 03:23:05;;;;;;;;;;;;;;;10.45;82.03;98132.03;4888497;29;19927;-59
2022/10/26 03:25:33;;;;;;;;;;;;;;;10.47;81.75;98124.38;4895744;29;19983;-61
2022/10/26 03:28:03;;;;;;;;;;;;;;;10.51;81.91;98134.66;4897092;29;19934;-60
2022/10/26 03:30:32;;;;;;;;;;;;;;;10.45;82.32;98126.63;4893505;29;19950;-61
2022/10/26 03:33:00;;;;;;;;;;;;;;;10.51;82.43;98129.22;4890861;29;19928;-60
2022/10/26 03:35:28;;;;;;;;;;;;;;;10.53;82.73;98129.72;4895315;29;20281;-60
2022/10/26 03:37:56;;;;;;;;;;;;;;;10.57;82.41;98128.78;4896314;29;20312;-60
2022/10/26 03:40:25;;;;;;;;;;;;;;;10.61;82.63;98127.06;4897608;29;19928;-60
2022/10/26 03:42:53;;;;;;;;;;;;;;;10.58;82.94;98124.16;4885877;29;20387;-61
2022/10/26 03:45:23;;;;;;;;;;;;;;;10.63;82.99;98121.34;4902477;29;20170;-60
2022/10/26 03:47:52;;;;;;;;;;;;;;;10.66;82.83;98115.31;4890246;29;19928;-60
2022/10/26 03:50:21;;;;;;;;;;;;;;;10.71;82.83;98112.47;4897543;29;20026;-60
2022/10/26 03:52:49;;;;;;;;;;;;;;;10.67;82.92;98116.91;4895314;29;19935;-62
2022/10/26 03:55:18;;;;;;;;;;;;;;;10.69;83.00;98120.09;4895375;29;20022;-61
2022/10/26 03:57:46;;;;;;;;;;;;;;;10.68;83.32;98113.06;4894787;29;19931;-60
2022/10/26 04:00:15;;;;;;;;;;;;;;;10.66;83.58;98109.88;4891973;29;19931;-61
2022/10/26 04:02:45;;;;;;;;;;;;;;;10.69;83.78;98110.03;4891140;29;19935;-60
2022/10/26 04:05:22;;;;;;;;;;;;;;;10.66;83.84;98120.72;4886997;29;20014;-61
2022/10/26 04:11:09;;;;;;;;;;;;;;;10.68;84.05;98115.78;4882932;29;19928;-64
2022/10/26 04:13:38;;;;;;;;;;;;;;;10.70;84.12;98119.00;4888423;29;19928;-63
2022/10/26 04:16:06;;;;;;;;;;;;;;;10.69;83.96;98118.19;4879431;29;19934;-61
2022/10/26 04:18:35;;;;;;;;;;;;;;;10.71;84.19;98118.69;4879407;29;19928;-61
2022/10/26 04:21:04;;;;;;;;;;;;;;;10.71;84.23;98118.69;4883906;29;20411;-59
2022/10/26 04:23:32;;;;;;;;;;;;;;;10.66;84.33;98126.16;4888448;29;19928;-60
2022/10/26 04:25:59;;;;;;;;;;;;;;;10.71;84.17;98124.13;4887885;29;19932;-61
2022/10/26 04:28:27;;;;;;;;;;;;;;;10.69;84.35;98128.25;4888684;29;19961;-58
2022/10/26 04:30:55;;;;;;;;;;;;;;;10.71;84.25;98135.00;4878236;29;19928;-60
2022/10/26 04:33:23;;;;;;;;;;;;;;;10.67;84.79;98131.28;4887751;29;19938;-60
2022/10/26 04:35:51;;;;;;;;;;;;;;;10.67;84.73;98133.19;4901894;29;20274;-60
2022/10/26 04:38:20;;;;;;;;;;;;;;;10.73;84.30;98143.66;4887678;29;19927;-61
2022/10/26 04:40:47;;;;;;;;;;;;;;;10.75;84.39;98148.75;4894034;29;19980;-63
2022/10/26 04:43:15;;;;;;;;;;;;;;;10.68;84.46;98145.66;4890865;29;19927;-60
2022/10/26 04:45:43;;;;;;;;;;;;;;;10.73;84.46;98149.06;4889950;29;19938;-65
2022/10/26 04:48:13;;;;;;;;;;;;;;;10.82;84.05;98151.88;4887109;29;20347;-61
2022/10/26 04:50:43;;;;;;;;;;;;;;;10.86;84.25;98146.63;4888589;29;19983;-61
2022/10/26 04:53:11;;;;;;;;;;;;;;;10.85;84.39;98139.56;4902767;29;19939;-61
2022/10/26 04:56:05;;;;;;;;;;;;;;;10.77;84.38;98146.56;4899119;29;19927;-60
2022/10/26 04:58:33;;;;;;;;;;;;;;;10.80;84.54;98154.09;4903283;29;20393;-61
2022/10/26 05:01:25;;;;;;;;;;;;;;;10.83;84.58;98147.25;4890943;29;19974;-61
2022/10/26 05:03:56;;;;;;;;;;;;;;;10.81;84.76;98150.25;4919585;29;20269;-60
2022/10/26 05:06:24;;;;;;;;;;;;;;;10.86;84.50;98147.41;4891187;29;19927;-58
2022/10/26 05:09:17;;;;;;;;;;;;;;;10.86;84.79;98146.63;4891470;29;20014;-60
2022/10/26 05:14:41;;;;;;;;;;;;;;;10.90;84.73;98137.53;4891953;29;20021;-61
2022/10/26 05:17:08;;;;;;;;;;;;;;;10.93;84.75;98130.72;4901162;29;19935;-61
2022/10/26 05:19:36;;;;;;;;;;;;;;;10.95;84.81;98139.34;4893074;29;19975;-60
2022/10/26 05:22:04;;;;;;;;;;;;;;;10.96;84.93;98138.22;4893540;29;20374;-60
2022/10/26 05:24:32;;;;;;;;;;;;;;;10.98;84.95;98144.19;4902242;29;19927;-59
2022/10/26 05:27:01;;;;;;;;;;;;;;;10.93;85.46;98139.66;4899172;29;19928;-60
2022/10/26 05:29:29;;;;;;;;;;;;;;;10.97;85.37;98148.81;4898191;29;19943;-61
2022/10/26 05:31:57;;;;;;;;;;;;;;;11.01;85.20;98141.63;4884645;29;19954;-60
2022/10/26 05:34:25;;;;;;;;;;;;;;;11.04;85.19;98136.69;4901191;29;19934;-59
2022/10/26 05:36:54;;;;;;;;;;;;;;;11.07;85.07;98155.09;4887857;29;19927;-60
2022/10/26 05:39:21;;;;;;;;;;;;;;;11.01;85.20;98149.78;4891184;29;19927;-60
2022/10/26 05:41:49;;;;;;;;;;;;;;;11.08;85.24;98162.97;4889256;29;20413;-60
2022/10/26 05:44:19;;;;;;;;;;;;;;;11.06;85.15;98150.78;4896361;29;19947;-61
2022/10/26 05:46:49;;;;;;;;;;;;;;;11.07;85.41;98152.38;4887997;29;19927;-62
2022/10/26 05:49:17;;;;;;;;;;;;;;;11.07;85.32;98149.66;4898988;29;20296;-61
2022/10/26 05:51:45;;;;;;;;;;;;;;;11.07;85.23;98153.19;4897996;29;19927;-61
2022/10/26 05:54:13;;;;;;;;;;;;;;;11.08;85.48;98152.09;4898526;29;19931;-60
2022/10/26 05:56:41;;;;;;;;;;;;;;;11.04;85.58;98148.38;4897639;29;19932;-59
2022/10/26 05:59:10;;;;;;;;;;;;;;;11.06;85.96;98154.31;4898177;29;19935;-61
2022/10/26 06:01:44;;;;;;;;;;;;;;;11.01;85.84;98152.50;4891134;29;19950;-61
2022/10/26 06:04:15;;;;;;;;;;;;;;;11.06;85.76;98150.78;4895515;29;19927;-61
2022/10/26 06:06:44;;;;;;;;;;;;;;;11.05;85.90;98152.69;4912678;29;20407;-60
2022/10/26 06:09:12;;;;;;;;;;;;;;;11.08;86.12;98153.97;4897526;29;19932;-60
2022/10/26 06:11:40;;;;;;;;;;;;;;;11.09;85.89;98156.41;4898376;29;19931;-61
2022/10/26 06:14:11;;;;;;;;;;;;;;;11.10;85.92;98159.94;4895298;29;19934;-60
2022/10/26 06:16:42;;;;;;;;;;;;;;;11.07;86.25;98161.34;4897670;29;19927;-61
2022/10/26 06:19:13;;;;;;;;;;;;;;;11.12;86.47;98155.78;4898691;29;19975;-61
2022/10/26 06:21:45;;;;;;;;;;;;;;;11.19;86.14;98150.75;4897426;29;19931;-61
2022/10/26 06:24:14;;;;;;;;;;;;;;;11.24;86.11;98163.41;4904589;29;19928;-60
2022/10/26 06:26:43;;;;;;;;;;;;;;;11.21;86.33;98164.00;4885981;29;19970;-61
2022/10/26 06:29:16;;;;;;;;;;;;;;;11.25;86.31;98159.56;4892063;29;19932;-60
2022/10/26 06:31:45;;;;;;;;;;;;;;;11.30;86.19;98173.03;4890705;29;19935;-61
2022/10/26 06:34:14;;;;;;;;;;;;;;;11.31;86.34;98161.06;4893781;29;20297;-61
2022/10/26 06:36:43;;;;;;;;;;;;;;;11.36;86.52;98174.53;4897335;29;20321;-60
2022/10/26 06:39:11;;;;;;;;;;;;;;;11.39;86.22;98173.88;4911976;29;19983;-60
2022/10/26 06:41:39;;;;;;;;;;;;;;;11.44;86.44;98178.41;4897111;29;20329;-60
2022/10/26 06:44:09;;;;;;;;;;;;;;;11.50;85.44;98186.16;4897128;29;19936;-60
2022/10/26 06:47:02;;;;;;;;;;;;;;;11.62;84.80;98173.91;4900731;29;19928;-61
2022/10/26 06:49:32;;;;;;;;;;;;;;;11.55;85.38;98166.94;4896256;29;19938;-61
2022/10/26 06:52:00;;;;;;;;;;;;;;;11.57;85.73;98168.59;4902571;29;19928;-61
2022/10/26 06:54:31;;;;;;;;;;;;;;;11.59;85.78;98169.84;4915091;29;20274;-61
2022/10/26 06:56:59;;;;;;;;;;;;;;;11.59;85.51;98163.63;4906335;29;19946;-62
2022/10/26 06:59:33;;;;;;;;;;;;;;;11.65;85.59;98162.38;4904920;29;19942;-61
2022/10/26 07:02:25;;;;;;;;;;;;;;;11.74;84.89;98155.84;4892590;29;20014;-60
2022/10/26 07:05:20;;;;;;;;;;;;;;;11.77;85.02;98154.41;4895686;29;19928;-61
2022/10/26 07:07:57;;;;;;;;;;;;;;;11.86;84.87;98157.22;4897497;29;19932;-60
2022/10/26 07:10:25;;;;;;;;;;;;;;;11.86;84.96;98155.31;4897457;29;19927;-60
2022/10/26 07:12:54;;;;;;;;;;;;;;;11.89;85.05;98162.84;4896920;29;20018;-60
2022/10/26 07:15:23;;;;;;;;;;;;;;;11.89;85.08;98178.38;4880831;29;20483;-60
2022/10/26 07:17:51;;;;;;;;;;;;;;;11.87;85.11;98186.84;4887466;29;20291;-60
2022/10/26 07:20:20;;;;;;;;;;;;;;;11.86;85.38;98201.56;4896211;29;19938;-61
2022/10/26 07:22:51;;;;;;;;;;;;;;;11.80;85.83;98191.91;4896669;29;19931;-60
2022/10/26 07:25:21;;;;;;;;;;;;;;;11.83;85.95;98188.59;4887794;29;20377;-61
2022/10/26 07:27:51;;;;;;;;;;;;;;;11.91;85.73;98193.28;4896639;29;19961;-61
2022/10/26 07:30:20;;;;;;;;;;;;;;;11.99;85.84;98202.63;4901879;29;19937;-61
2022/10/26 07:32:48;;;;;;;;;;;;;;;12.06;85.62;98206.50;4900460;29;19966;-61
2022/10/26 07:35:16;;;;;;;;;;;;;;;12.13;85.70;98206.03;4893642;29;20018;-61
2022/10/26 07:37:44;;;;;;;;;;;;;;;12.15;84.96;98213.91;4892358;29;19938;-61
2022/10/26 07:40:12;;;;;;;;;;;;;;;12.18;85.18;98214.06;4893595;29;19937;-60
2022/10/26 07:42:41;;;;;;;;;;;;;;;12.27;85.13;98211.38;4894539;29;19928;-61
2022/10/26 07:45:12;;;;;;;;;;;;;;;12.29;84.47;98204.50;4884065;29;20026;-60
2022/10/26 07:47:39;;;;;;;;;;;;;;;12.32;84.39;98214.78;4898390;29;19931;-61
2022/10/26 07:50:08;;;;;;;;;;;;;;;12.43;84.27;98222.66;4893333;29;19936;-61
2022/10/26 07:52:37;;;;;;;;;;;;;;;12.45;83.95;98223.94;4895966;29;19927;-61
2022/10/26 07:55:06;;;;;;;;;;;;;;;12.50;84.17;98237.41;4890175;29;19951;-62
2022/10/26 07:57:35;;;;;;;;;;;;;;;12.50;84.04;98237.41;4897788;29;19957;-60
2022/10/26 08:00:04;;;;;;;;;;;;;;;12.51;83.56;98243.66;4896637;29;19950;-58
2022/10/26 08:02:33;;;;;;;;;;;;;;;12.52;83.55;98240.66;4894792;29;20280;-60
2022/10/26 08:05:26;;;;;;;;;;;;;;;12.57;83.04;98237.78;4891394;29;20008;-61
2022/10/26 08:07:54;;;;;;;;;;;;;;;12.58;83.56;98239.38;4899993;29;19932;-61
2022/10/26 08:10:25;;;;;;;;;;;;;;;12.57;83.69;98250.63;4914330;29;19934;-60
2022/10/26 08:12:53;;;;;;;;;;;;;;;12.55;83.82;98248.19;4899077;29;19970;-61
2022/10/26 08:15:25;;;;;;;;;;;;;;;12.62;84.04;98244.19;4889706;29;19978;-61
2022/10/26 08:17:53;;;;;;;;;;;;;;;12.65;83.79;98249.03;4900180;29;19931;-61
2022/10/26 08:20:21;;;;;;;;;;;;;;;12.70;84.12;98249.66;4902365;29;19936;-66
2022/10/26 08:22:49;;;;;;;;;;;;;;;12.74;83.76;98260.75;4894621;29;19932;-61
2022/10/26 08:25:17;;;;;;;;;;;;;;;12.79;83.60;98250.50;4892168;29;19935;-60
2022/10/26 08:27:48;;;;;;;;;;;;;;;12.77;83.27;98249.19;4896266;29;20296;-61
2022/10/26 08:30:16;;;;;;;;;;;;;;;12.81;83.12;98250.97;4894091;29;19927;-61
2022/10/26 08:32:46;;;;;;;;;;;;;;;12.84;83.08;98244.09;4898696;29;20352;-61
2022/10/26 08:35:14;;;;;;;;;;;;;;;12.87;83.23;98243.44;4899110;29;19942;-61
2022/10/26 08:37:42;;;;;;;;;;;;;;;12.95;82.45;98248.13;4888617;29;19927;-61
2022/10/26 08:40:11;;;;;;;;;;;;;;;13.02;82.73;98247.66;4890200;29;20304;-61
2022/10/26 08:42:40;;;;;;;;;;;;;;;13.11;82.47;98252.00;4887887;29;19954;-61
2022/10/26 08:45:10;;;;;;;;;;;;;;;13.16;82.49;98248.31;4895271;29;19953;-61
2022/10/26 08:47:41;;;;;;;;;;;;;;;13.24;82.13;98247.53;4899926;29;19950;-61
2022/10/26 08:50:12;;;;;;;;;;;;;;;13.36;81.94;98250.44;4905908;29;19949;-59
2022/10/26 08:52:42;;;;;;;;;;;;;;;13.49;81.72;98243.22;4907110;29;19975;-59
2022/10/26 08:55:11;;;;;;;;;;;;;;;13.54;80.56;98248.50;4907931;29;19955;-61
2022/10/26 08:57:40;;;;;;;;;;;;;;;13.59;80.48;98256.53;4896024;29;20038;-61
2022/10/26 09:00:11;;;;;;;;;;;;;;;13.66;80.81;98258.78;4890743;29;19928;-60
2022/10/26 09:02:41;;;;;;;;;;;;;;;13.68;80.16;98261.19;4896811;29;27628;-61
2022/10/26 09:05:35;;;;;;;;;;;;;;;13.73;80.10;98261.00;4897681;29;19932;-62
2022/10/26 09:08:07;;;;;;;;;;;;;;;13.78;79.76;98266.31;4899839;29;19952;-60
2022/10/26 09:10:38;;;;;;;;;;;;;;;13.80;79.47;98261.34;4893579;29;20018;-61
2022/10/26 09:13:08;;;;;;;;;;;;;;;13.81;79.40;98266.47;4902251;29;19927;-61
2022/10/26 09:15:39;;;;;;;;;;;;;;;13.86;79.13;98260.84;4888337;29;19984;-61
2022/10/26 09:18:09;;;;;;;;;;;;;;;13.92;79.34;98256.00;4893878;29;20481;-61
2022/10/26 09:20:45;;;;;;;;;;;;;;;13.96;79.04;98262.44;4895962;29;19971;-60
2022/10/26 09:23:18;;;;;;;;;;;;;;;13.99;77.99;98269.16;4893031;29;20018;-61
2022/10/26 09:25:47;;;;;;;;;;;;;;;14.02;77.89;98269.31;4891350;29;19959;-61
2022/10/26 09:28:16;;;;;;;;;;;;;;;14.09;78.32;98277.00;4896380;29;19934;-59
2022/10/26 09:31:10;;;;;;;;;;;;;;;14.13;77.85;98275.25;4903124;29;20388;-59
2022/10/26 09:33:38;;;;;;;;;;;;;;;14.18;79.04;98277.00;4898627;29;19927;-59
2022/10/26 09:36:07;;;;;;;;;;;;;;;14.18;78.50;98282.47;4904994;29;19935;-60
2022/10/26 09:38:40;;;;;;;;;;;;;;;14.22;78.88;98286.13;4895159;29;19928;-60
2022/10/26 09:41:12;;;;;;;;;;;;;;;14.25;77.93;98285.50;4896227;29;19935;-60
2022/10/26 09:43:42;;;;;;;;;;;;;;;14.29;77.72;98292.72;4893151;29;19927;-60
2022/10/26 09:46:13;;;;;;;;;;;;;;;14.29;77.92;98291.91;4890997;29;19928;-60
2022/10/26 09:48:41;;;;;;;;;;;;;;;14.30;77.75;98293.53;4883800;29;19927;-60
2022/10/26 09:51:10;;;;;;;;;;;;;;;14.29;77.41;98298.19;4903220;29;19927;-60
2022/10/26 09:53:38;;;;;;;;;;;;;;;14.36;77.48;98303.16;4897773;29;19927;-60
2022/10/26 09:56:08;;;;;;;;;;;;;;;14.41;77.42;98309.22;4896914;29;19928;-59
2022/10/26 09:58:37;;;;;;;;;;;;;;;14.39;77.82;98318.91;4897596;29;20274;-60
2022/10/26 10:01:31;;;;;;;;;;;;;;;14.39;77.55;98310.69;4890057;29;19931;-59
2022/10/26 10:04:19;;;;;;;;;;;;;;;14.39;77.36;98316.16;4891987;29;19928;-61
2022/10/26 10:06:50;;;;;;;;;;;;;;;14.45;77.30;98306.66;4894203;29;19934;-60
2022/10/26 10:09:21;;;;;;;;;;;;;;;14.52;77.98;98315.19;4898198;29;20280;-60
2022/10/26 10:12:14;;;;;;;;;;;;;;;14.66;77.19;98315.78;4909123;29;19928;-60
2022/10/26 10:14:56;;;;;;;;;;;;;;;14.78;77.43;98311.53;4897674;29;19934;-60
2022/10/26 10:17:24;;;;;;;;;;;;;;;14.88;76.66;98322.13;4886396;29;20043;-59
2022/10/26 10:19:52;;;;;;;;;;;;;;;15.00;75.38;98324.94;4887740;29;20034;-60
2022/10/26 10:22:21;;;;;;;;;;;;;;;15.01;75.95;98323.81;4894515;29;20022;-62
2022/10/26 10:24:53;;;;;;;;;;;;;;;15.01;75.17;98329.28;4895052;29;19928;-60
2022/10/26 10:27:22;;;;;;;;;;;;;;;15.06;75.46;98329.09;4889899;29;19928;-60
2022/10/26 10:29:50;;;;;;;;;;;;;;;15.05;74.29;98322.03;4896590;29;19927;-60
2022/10/26 10:32:20;;;;;;;;;;;;;;;15.11;74.89;98328.09;4889163;29;19935;-61
2022/10/26 10:34:48;;;;;;;;;;;;;;;15.20;75.05;98329.66;4894453;29;19927;-60
2022/10/26 10:37:22;;;;;;;;;;;;;;;15.26;75.03;98329.47;4892417;29;20054;-59
2022/10/26 10:39:50;;;;;;;;;;;;;;;15.34;74.49;98331.34;4895217;29;19932;-60
2022/10/26 10:42:18;;;;;;;;;;;;;;;15.38;74.23;98329.53;4891888;29;20300;-60
2022/10/26 10:44:50;;;;;;;;;;;;;;;15.40;74.16;98336.31;4899784;29;19972;-60
2022/10/26 10:47:21;;;;;;;;;;;;;;;15.35;75.29;98335.69;4894675;29;19928;-60
2022/10/26 10:49:53;;;;;;;;;;;;;;;15.30;74.57;98335.91;4897909;29;19928;-59
2022/10/26 10:52:26;;;;;;;;;;;;;;;15.32;74.54;98334.41;4889863;29;19928;-61
2022/10/26 10:54:55;;;;;;;;;;;;;;;15.37;74.77;98327.94;4894068;29;19928;-61
2022/10/26 11:00:18;;;;;;;;;;;;;;;15.44;74.94;98328.22;4890314;29;19935;-60
2022/10/26 11:02:53;;;;;;;;;;;;;;;15.49;74.82;98325.28;4895901;29;20309;-59
2022/10/26 11:05:28;;;;;;;;;;;;;;;15.54;74.23;98327.03;4901329;29;19979;-60
2022/10/26 11:07:57;;;;;;;;;;;;;;;15.59;74.29;98322.13;4909695;29;19931;-59
2022/10/26 11:10:28;;;;;;;;;;;;;;;15.62;74.42;98326.16;4907607;29;20026;-60
2022/10/26 11:12:57;;;;;;;;;;;;;;;15.66;74.09;98330.69;4896505;29;20257;-60
2022/10/26 11:15:26;;;;;;;;;;;;;;;15.69;74.17;98335.47;4880152;29;20209;-60
2022/10/26 11:17:58;;;;;;;;;;;;;;;15.69;73.89;98334.66;4891194;29;19927;-60
2022/10/26 11:20:27;;;;;;;;;;;;;;;15.68;74.21;98353.03;4895934;29;19933;-61
2022/10/26 11:23:00;;;;;;;;;;;;;;;15.65;74.39;98342.75;4893284;29;20031;-60
2022/10/26 11:25:31;;;;;;;;;;;;;;;15.61;74.82;98346.47;4889206;29;20023;-60
2022/10/26 11:28:00;;;;;;;;;;;;;;;15.63;74.46;98345.03;4888908;29;20054;-60
2022/10/26 11:30:28;;;;;;;;;;;;;;;15.63;74.41;98347.75;4891211;29;20018;-60
2022/10/26 11:32:59;;;;;;;;;;;;;;;15.66;74.03;98347.09;4895753;29;19934;-60
2022/10/26 11:35:28;;;;;;;;;;;;;;;15.61;73.97;98355.50;4892236;29;19934;-61
2022/10/26 11:37:57;;;;;;;;;;;;;;;15.59;74.49;98355.00;4896237;29;19939;-60
2022/10/26 11:40:26;;;;;;;;;;;;;;;15.56;75.61;98357.63;4892370;29;19931;-58
2022/10/26 11:42:56;;;;;;;;;;;;;;;15.57;75.32;98361.97;4890981;29;19931;-60
2022/10/26 11:45:25;;;;;;;;;;;;;;;15.62;75.10;98359.03;4888039;29;19955;-58
2022/10/26 11:47:54;;;;;;;;;;;;;;;15.63;75.00;98364.19;4884985;29;20030;-61
2022/10/26 11:50:25;;;;;;;;;;;;;;;15.67;75.21;98356.13;4894841;29;19955;-61
2022/10/26 11:53:43;;;;;;;;;;;;;;;15.71;75.25;98363.34;4888665;29;19927;-61
2022/10/26 11:56:12;;;;;;;;;;;;;;;15.75;75.39;98368.13;4895611;29;19970;-61
2022/10/26 12:01:32;;;;;;;;;;;;;;;15.80;75.01;98367.94;4884992;29;20006;-60
2022/10/26 12:04:01;;;;;;;;;;;;;;;15.81;75.67;98361.31;4892789;29;20002;-61
2022/10/26 12:06:32;;;;;;;;;;;;;;;15.87;74.85;98368.19;4895972;29;19966;-61
2022/10/26 12:09:04;;;;;;;;;;;;;;;15.93;75.36;98372.38;4895420;29;19928;-61
2022/10/26 12:11:35;;;;;;;;;;;;;;;15.94;75.35;98369.28;4895216;29;19957;-60
2022/10/26 12:14:05;;;;;;;;;;;;;;;15.99;75.43;98381.97;4896301;29;19927;-59
2022/10/26 12:16:40;;;;;;;;;;;;;;;16.06;74.94;98387.72;4899306;29;19936;-60
2022/10/26 12:19:09;;;;;;;;;;;;;;;16.06;74.93;98384.97;4890986;29;19931;-60
2022/10/26 12:21:41;;;;;;;;;;;;;;;16.10;74.11;98383.16;4898804;29;19927;-60
2022/10/26 12:24:23;;;;;;;;;;;;;;;16.09;74.44;98381.56;4910437;29;19927;-61
2022/10/26 12:26:52;;;;;;;;;;;;;;;16.12;74.62;98389.09;4892855;29;19928;-60
2022/10/26 12:29:40;;;;;;;;;;;;;;;16.15;75.10;98391.19;4891669;29;19934;-61
2022/10/26 12:32:26;;;;;;;;;;;;;;;16.18;74.72;98386.97;4886246;29;20014;-60
2022/10/26 12:34:57;;;;;;;;;;;;;;;16.19;74.64;98396.78;4895411;29;20397;-60
2022/10/26 12:37:30;;;;;;;;;;;;;;;16.20;74.78;98393.72;4890864;29;19931;-59
2022/10/26 12:40:13;;;;;;;;;;;;;;;16.18;74.69;98390.50;4909516;29;20002;-61
2022/10/26 12:46:38;;;;;;;;;;;;;;;16.22;74.67;98383.22;4884187;29;19932;-60
2022/10/26 12:49:47;;;;;;;;;;;;;;;16.21;75.54;98389.84;4892958;29;20014;-60
2022/10/26 12:52:21;;;;;;;;;;;;;;;16.22;75.27;98385.16;4899044;29;19963;-60
2022/10/26 12:55:07;;;;;;;;;;;;;;;16.24;75.56;98385.59;4897154;29;19928;-61
2022/10/26 12:58:00;;;;;;;;;;;;;;;16.28;75.29;98381.06;4887803;29;19975;-60
2022/10/26 13:00:29;;;;;;;;;;;;;;;16.40;75.03;98386.56;4905090;29;19936;-60
2022/10/26 13:03:05;;;;;;;;;;;;;;;16.52;74.53;98394.06;4888715;29;19932;-61
2022/10/26 13:05:40;;;;;;;;;;;;;;;16.60;73.80;98395.91;4892410;29;20410;-60
2022/10/26 13:08:11;;;;;;;;;;;;;;;16.68;73.63;98399.72;4892852;29;19927;-59
2022/10/26 13:10:40;;;;;;;;;;;;;;;16.72;73.31;98400.63;4897578;29;20410;-59
2022/10/26 13:13:09;;;;;;;;;;;;;;;16.75;72.98;98397.22;4897534;29;19963;-61
2022/10/26 13:15:39;;;;;;;;;;;;;;;16.81;72.45;98401.34;4892607;29;20371;-60
2022/10/26 13:30:08;;;;;;;;;;;;;;;17.24;71.54;98400.03;4894973;29;19924;-61
2022/10/26 13:33:27;;;;;;;;;;;;;;;17.26;71.62;98404.03;4892879;29;19931;-60
2022/10/26 13:36:00;;;;;;;;;;;;;;;17.31;70.38;98400.28;4897734;29;20334;-60
2022/10/26 13:38:31;;;;;;;;;;;;;;;17.22;71.43;98411.34;4891364;29;19927;-60
2022/10/26 13:41:02;;;;;;;;;;;;;;;17.19;71.70;98408.50;4894295;29;19934;-59
2022/10/26 13:43:30;;;;;;;;;;;;;;;17.14;71.38;98409.50;4891779;29;20006;-61